createdAt,value
2022-11-23T00:01:36.452Z,13.60
2022-11-23T00:04:08.123Z,13.60
2022-11-23T00:06:37.958Z,13.50
2022-11-23T00:09:06.926Z,13.50
2022-11-23T00:11:36.862Z,13.50
2022-11-23T00:14:05.987Z,13.40
2022-11-23T00:16:34.434Z,13.50
2022-11-23T00:19:03.912Z,13.40
2022-11-23T00:21:34.426Z,13.50
2022-11-23T00:24:02.976Z,13.40
2022-11-23T00:26:31.446Z,13.40
2022-11-23T00:29:00.376Z,13.30
2022-11-23T00:31:28.900Z,13.20
2022-11-23T00:33:58.417Z,13.30
2022-11-23T00:36:28.074Z,13.50
2022-11-23T00:38:58.899Z,13.60
2022-11-23T00:41:28.764Z,13.70
2022-11-23T00:43:57.282Z,13.70
2022-11-23T00:46:27.989Z,13.80
2022-11-23T00:48:57.784Z,13.80
2022-11-23T00:51:30.389Z,13.80
2022-11-23T00:54:00.962Z,13.90
2022-11-23T00:56:30.265Z,13.90
2022-11-23T00:59:00.466Z,13.80
2022-11-23T01:01:33.916Z,13.80
2022-11-23T01:04:04.535Z,13.90
2022-11-23T01:06:35.176Z,13.80
2022-11-23T01:09:08.086Z,13.90
2022-11-23T01:11:36.963Z,14.00
2022-11-23T01:14:05.449Z,14.00
2022-11-23T01:16:36.119Z,14.10
2022-11-23T01:19:07.236Z,14.10
2022-11-23T01:21:38.239Z,14.20
2022-11-23T01:24:13.453Z,14.20
2022-11-23T01:26:42.486Z,14.10
2022-11-23T01:29:11.204Z,14.00
2022-11-23T01:31:46.172Z,13.80
2022-11-23T01:34:18.521Z,13.60
2022-11-23T01:36:47.103Z,13.30
2022-11-23T01:39:16.893Z,13.20
2022-11-23T01:41:46.805Z,13.30
2022-11-23T01:44:26.704Z,13.20
2022-11-23T01:46:56.434Z,13.20
2022-11-23T01:49:26.438Z,13.20
2022-11-23T01:51:58.807Z,12.90
2022-11-23T01:54:32.590Z,12.60
2022-11-23T01:57:07.673Z,12.30
2022-11-23T01:59:37.632Z,11.90
2022-11-23T02:02:08.764Z,11.70
2022-11-23T02:04:41.692Z,11.60
2022-11-23T02:07:10.719Z,11.50
2022-11-23T02:09:41.063Z,11.50
2022-11-23T02:12:13.132Z,11.40
2022-11-23T02:14:42.521Z,11.40
2022-11-23T02:17:12.282Z,11.40
2022-11-23T02:19:51.819Z,11.40
2022-11-23T02:22:33.811Z,11.50
2022-11-23T02:25:12.102Z,11.60
2022-11-23T02:27:46.984Z,11.70
2022-11-23T02:30:16.646Z,11.80
2022-11-23T02:32:46.154Z,11.80
2022-11-23T02:35:14.859Z,11.80
2022-11-23T02:37:45.173Z,11.90
2022-11-23T02:40:24.498Z,11.90
2022-11-23T02:42:55.253Z,11.90
2022-11-23T02:45:35.090Z,11.90
2022-11-23T02:48:03.924Z,11.90
2022-11-23T02:50:32.557Z,11.90
2022-11-23T02:53:02.066Z,11.90
2022-11-23T02:55:33.349Z,11.90
2022-11-23T02:58:04.465Z,11.90
2022-11-23T03:00:33.013Z,12.00
2022-11-23T03:03:02.993Z,12.00
2022-11-23T03:05:31.860Z,12.10
2022-11-23T03:08:05.099Z,12.20
2022-11-23T03:10:34.635Z,12.30
2022-11-23T03:13:04.839Z,12.30
2022-11-23T03:15:37.134Z,12.40
2022-11-23T03:18:07.016Z,12.30
2022-11-23T03:20:36.496Z,12.30
2022-11-23T03:23:06.252Z,12.30
2022-11-23T03:25:34.948Z,12.30
2022-11-23T03:28:07.499Z,12.30
2022-11-23T03:30:36.664Z,12.30
2022-11-23T03:33:07.141Z,12.30
2022-11-23T03:35:38.602Z,12.20
2022-11-23T03:38:26.962Z,12.30
2022-11-23T03:40:56.169Z,12.30
2022-11-23T03:43:46.318Z,12.20
2022-11-23T03:46:14.826Z,12.10
2022-11-23T03:48:43.240Z,12.20
2022-11-23T03:51:12.316Z,12.00
2022-11-23T03:53:41.249Z,11.60
2022-11-23T03:56:10.185Z,11.30
2022-11-23T03:58:43.232Z,11.20
2022-11-23T04:01:16.490Z,11.10
2022-11-23T04:03:48.015Z,11.10
2022-11-23T04:06:36.322Z,11.10
2022-11-23T04:09:13.721Z,11.10
2022-11-23T04:12:02.440Z,11.00
2022-11-23T04:14:30.918Z,11.00
2022-11-23T04:17:02.404Z,10.90
2022-11-23T04:19:32.698Z,10.80
2022-11-23T04:22:01.737Z,10.60
2022-11-23T04:24:36.391Z,10.60
2022-11-23T04:27:06.697Z,10.50
2022-11-23T04:29:35.312Z,10.60
2022-11-23T04:32:05.339Z,10.60
2022-11-23T04:34:34.174Z,10.60
2022-11-23T04:37:08.929Z,10.60
2022-11-23T04:39:41.722Z,10.50
2022-11-23T04:42:28.341Z,10.60
2022-11-23T04:45:00.176Z,10.60
2022-11-23T04:47:33.036Z,10.60
2022-11-23T04:50:07.560Z,10.60
2022-11-23T04:52:35.983Z,10.50
2022-11-23T04:55:10.458Z,10.50
2022-11-23T04:57:48.978Z,10.40
2022-11-23T05:00:19.357Z,10.40
2022-11-23T05:02:50.630Z,10.40
2022-11-23T05:05:26.965Z,10.50
2022-11-23T05:07:56.261Z,10.50
2022-11-23T05:10:27.681Z,10.60
2022-11-23T05:13:00.047Z,10.70
2022-11-23T05:15:30.890Z,10.80
2022-11-23T05:18:06.405Z,10.90
2022-11-23T05:20:36.077Z,10.90
2022-11-23T05:23:04.907Z,11.00
2022-11-23T05:25:35.601Z,11.00
2022-11-23T05:28:23.265Z,11.10
2022-11-23T05:30:55.282Z,11.10
2022-11-23T05:33:25.235Z,11.20
2022-11-23T05:35:53.701Z,11.30
2022-11-23T05:38:31.499Z,11.30
2022-11-23T05:41:03.068Z,11.30
2022-11-23T05:43:31.737Z,11.30
2022-11-23T05:46:01.361Z,11.40
2022-11-23T05:48:32.632Z,11.40
2022-11-23T05:51:05.448Z,11.50
2022-11-23T05:53:37.741Z,11.50
2022-11-23T05:56:26.159Z,11.50
2022-11-23T05:59:15.861Z,11.40
2022-11-23T06:01:48.689Z,11.30
2022-11-23T06:04:26.454Z,11.30
2022-11-23T06:07:00.944Z,11.50
2022-11-23T06:09:38.211Z,11.50
2022-11-23T06:12:10.388Z,11.60
2022-11-23T06:14:39.447Z,11.70
2022-11-23T06:17:07.894Z,11.80
2022-11-23T06:19:46.133Z,11.90
2022-11-23T06:22:15.366Z,12.00
2022-11-23T06:24:55.236Z,12.00
2022-11-23T06:27:37.555Z,12.10
2022-11-23T06:30:15.465Z,12.10
2022-11-23T06:32:44.836Z,12.20
2022-11-23T06:35:14.928Z,12.30
2022-11-23T06:37:46.329Z,12.40
2022-11-23T06:40:14.987Z,12.40
2022-11-23T06:42:44.524Z,12.40
2022-11-23T06:45:19.898Z,12.50
2022-11-23T06:47:52.301Z,12.60
2022-11-23T06:50:22.579Z,12.60
2022-11-23T06:52:56.888Z,12.60
2022-11-23T06:55:35.750Z,12.50
2022-11-23T06:58:07.555Z,12.60
2022-11-23T07:00:36.477Z,12.50
2022-11-23T07:03:05.194Z,12.50
2022-11-23T07:05:43.378Z,12.30
2022-11-23T07:08:12.975Z,12.10
2022-11-23T07:10:42.014Z,11.90
2022-11-23T07:13:14.826Z,11.90
2022-11-23T07:15:44.289Z,11.80
2022-11-23T07:18:14.369Z,11.80
2022-11-23T07:20:50.955Z,11.80
2022-11-23T07:23:19.587Z,11.70
2022-11-23T07:25:48.180Z,11.70
2022-11-23T07:28:18.811Z,11.70
2022-11-23T07:30:47.239Z,11.80
2022-11-23T07:33:16.743Z,11.80
2022-11-23T07:35:45.518Z,12.00
2022-11-23T07:38:15.413Z,12.20
2022-11-23T07:40:44.745Z,12.50
2022-11-23T07:43:25.461Z,12.60
2022-11-23T07:45:57.385Z,12.90
2022-11-23T07:48:26.051Z,13.10
2022-11-23T07:50:55.514Z,13.20
2022-11-23T07:53:25.320Z,13.40
2022-11-23T07:55:58.581Z,13.50
2022-11-23T07:58:27.272Z,13.60
2022-11-23T08:00:55.663Z,13.60
2022-11-23T08:03:28.647Z,13.50
2022-11-23T08:05:57.725Z,13.50
2022-11-23T08:08:27.676Z,13.60
2022-11-23T08:10:56.127Z,13.70
2022-11-23T08:13:24.694Z,13.80
2022-11-23T08:15:55.819Z,14.10
2022-11-23T08:18:25.189Z,14.30
2022-11-23T08:20:53.764Z,14.30
2022-11-23T08:23:22.256Z,14.30
2022-11-23T08:25:52.542Z,14.20
2022-11-23T08:28:21.421Z,13.90
2022-11-23T08:30:49.994Z,13.70
2022-11-23T08:33:18.926Z,13.50
2022-11-23T08:35:47.554Z,13.30
2022-11-23T08:38:16.003Z,13.10
2022-11-23T08:40:44.456Z,12.90
2022-11-23T08:43:14.255Z,12.70
2022-11-23T08:45:42.704Z,12.30
2022-11-23T08:48:11.597Z,12.00
2022-11-23T08:50:40.083Z,11.80
2022-11-23T08:53:08.461Z,11.80
2022-11-23T08:55:36.952Z,11.70
2022-11-23T08:58:10.367Z,11.70
2022-11-23T09:00:43.002Z,11.80
2022-11-23T09:03:11.433Z,11.90
2022-11-23T09:05:40.527Z,12.00
2022-11-23T09:08:09.179Z,12.10
2022-11-23T09:10:38.020Z,12.20
2022-11-23T09:13:06.950Z,12.30
2022-11-23T09:15:35.413Z,12.40
2022-11-23T09:18:05.299Z,12.40
2022-11-23T09:20:33.694Z,12.40
2022-11-23T09:23:02.159Z,12.40
2022-11-23T09:25:30.615Z,12.30
2022-11-23T09:28:00.060Z,12.20
2022-11-23T09:30:29.357Z,12.20
2022-11-23T09:32:58.263Z,12.20
2022-11-23T09:35:29.487Z,12.10
2022-11-23T09:37:58.845Z,12.00
2022-11-23T09:40:32.445Z,12.00
2022-11-23T09:43:35.675Z,12.00
2022-11-23T09:46:10.722Z,11.90
2022-11-23T09:48:52.872Z,11.90
2022-11-23T09:51:25.069Z,11.80
2022-11-23T09:53:56.966Z,11.80
2022-11-23T09:56:29.277Z,11.80
2022-11-23T09:59:01.561Z,11.80
2022-11-23T10:01:30.607Z,11.80
2022-11-23T10:03:59.565Z,11.90
2022-11-23T10:06:31.536Z,12.00
2022-11-23T10:09:12.736Z,12.00
2022-11-23T10:11:56.361Z,12.00
2022-11-23T10:14:50.350Z,12.10
2022-11-23T10:17:29.112Z,12.20
2022-11-23T10:20:14.121Z,12.20
2022-11-23T10:22:53.725Z,12.20
2022-11-23T10:25:24.158Z,12.10
2022-11-23T10:27:58.160Z,12.10
2022-11-23T10:30:26.596Z,12.10
2022-11-23T10:32:59.794Z,12.10
2022-11-23T10:35:34.457Z,12.00
2022-11-23T10:38:18.151Z,12.00
2022-11-23T10:40:59.673Z,12.00
2022-11-23T10:43:33.063Z,11.80
2022-11-23T10:46:30.956Z,11.80
2022-11-23T10:49:14.466Z,11.70
2022-11-23T10:51:52.732Z,11.80
2022-11-23T10:54:28.419Z,11.80
2022-11-23T10:56:58.084Z,11.80
2022-11-23T10:59:32.746Z,12.00
2022-11-23T11:02:18.860Z,12.00
2022-11-23T11:04:48.529Z,12.00
2022-11-23T11:07:38.140Z,12.00
2022-11-23T11:10:40.144Z,11.80
2022-11-23T11:13:25.902Z,11.80
2022-11-23T11:15:56.578Z,11.70
2022-11-23T11:18:30.004Z,11.70
2022-11-23T11:21:04.269Z,11.70
2022-11-23T11:23:34.457Z,11.70
2022-11-23T11:26:23.208Z,11.70
2022-11-23T11:28:54.435Z,11.70
2022-11-23T11:31:38.613Z,11.70
2022-11-23T11:34:22.570Z,11.80
2022-11-23T11:36:58.842Z,11.80
2022-11-23T11:39:36.779Z,11.80
2022-11-23T11:42:14.722Z,11.80
2022-11-23T11:44:44.126Z,11.70
2022-11-23T11:47:24.925Z,11.70
2022-11-23T11:49:57.979Z,11.70
2022-11-23T11:52:30.697Z,11.80
2022-11-23T11:55:08.424Z,11.90
2022-11-23T11:57:43.820Z,11.80
2022-11-23T12:00:17.012Z,12.00
2022-11-23T12:02:59.873Z,12.20
2022-11-23T12:05:37.637Z,12.20
2022-11-23T12:08:11.203Z,12.20
2022-11-23T12:10:45.527Z,12.30
2022-11-23T12:13:18.699Z,12.40
2022-11-23T12:15:51.352Z,12.50
2022-11-23T12:18:49.982Z,12.50
2022-11-23T12:21:32.781Z,12.60
2022-11-23T12:24:11.612Z,12.60
2022-11-23T12:26:51.093Z,12.50
2022-11-23T12:29:44.086Z,12.40
2022-11-23T12:32:25.981Z,12.40
2022-11-23T12:35:11.961Z,12.50
2022-11-23T12:37:48.775Z,12.50
2022-11-23T12:40:33.100Z,12.40
2022-11-23T12:43:07.433Z,12.40
2022-11-23T12:45:57.534Z,12.40
2022-11-23T12:48:37.249Z,12.00
2022-11-23T12:51:19.125Z,12.00
2022-11-23T12:53:55.974Z,12.10
2022-11-23T12:56:38.039Z,12.20
2022-11-23T12:59:09.831Z,12.10
2022-11-23T13:01:43.167Z,12.20
2022-11-23T13:04:34.910Z,12.00
2022-11-23T13:07:44.836Z,11.90
2022-11-23T13:10:31.761Z,11.90
2022-11-23T13:13:37.957Z,11.90
2022-11-23T13:16:25.020Z,12.00
2022-11-23T13:19:20.040Z,12.00
2022-11-23T13:21:49.036Z,12.00
2022-11-23T13:24:29.130Z,11.90
2022-11-23T13:27:31.572Z,11.70
2022-11-23T13:30:08.445Z,11.60
2022-11-23T13:32:52.928Z,11.60
2022-11-23T13:36:07.440Z,11.60
2022-11-23T13:38:47.739Z,11.60
2022-11-23T13:41:57.740Z,11.70
2022-11-23T13:44:28.757Z,11.60
2022-11-23T13:47:19.222Z,11.50
2022-11-23T13:49:49.391Z,11.60
2022-11-23T13:52:27.447Z,11.60
2022-11-23T13:55:08.983Z,11.50
2022-11-23T13:57:39.153Z,11.50
2022-11-23T14:00:52.964Z,11.50
2022-11-23T14:04:00.869Z,11.60
2022-11-23T14:06:39.312Z,11.70
2022-11-23T14:09:15.610Z,11.70
2022-11-23T14:11:57.345Z,11.80
2022-11-23T14:14:32.476Z,11.80
2022-11-23T14:17:35.920Z,11.80
2022-11-23T14:20:25.333Z,11.80
2022-11-23T14:23:10.456Z,11.90
2022-11-23T14:25:49.146Z,11.90
2022-11-23T14:28:34.438Z,12.00
2022-11-23T14:31:17.365Z,12.00
2022-11-23T14:33:53.268Z,12.10
2022-11-23T14:36:35.999Z,12.10
2022-11-23T14:39:34.051Z,12.10
2022-11-23T14:42:05.491Z,12.20
2022-11-23T14:44:40.780Z,12.20
2022-11-23T14:47:12.447Z,12.20
2022-11-23T14:49:50.890Z,12.20
2022-11-23T14:52:22.225Z,12.10
2022-11-23T14:54:52.675Z,12.10
2022-11-23T14:57:23.809Z,12.10
2022-11-23T14:59:57.157Z,12.00
2022-11-23T15:02:32.703Z,12.00
2022-11-23T15:05:13.344Z,12.00
2022-11-23T15:07:52.946Z,12.00
2022-11-23T15:10:39.417Z,11.90
2022-11-23T15:13:21.212Z,11.90
2022-11-23T15:15:55.076Z,11.90
2022-11-23T15:18:31.787Z,11.80
2022-11-23T15:21:02.877Z,11.70
2022-11-23T15:23:36.796Z,11.70
2022-11-23T15:26:07.933Z,11.70
2022-11-23T15:28:38.902Z,11.80
2022-11-23T15:31:29.003Z,11.70
2022-11-23T15:34:00.404Z,11.80
2022-11-23T15:36:33.989Z,11.80
2022-11-23T15:39:03.975Z,11.70
2022-11-23T15:41:33.066Z,11.70
2022-11-23T15:44:02.969Z,11.70
2022-11-23T15:46:38.981Z,11.70
2022-11-23T15:49:07.763Z,11.70
2022-11-23T15:51:40.337Z,11.60
2022-11-23T15:54:19.494Z,11.60
2022-11-23T15:56:50.450Z,11.50
2022-11-23T15:59:33.593Z,11.50
2022-11-23T16:02:07.542Z,11.50
2022-11-23T16:04:39.501Z,11.50
2022-11-23T16:07:19.236Z,11.50
2022-11-23T16:09:52.982Z,11.50
2022-11-23T16:12:28.076Z,11.40
2022-11-23T16:14:58.444Z,11.40
2022-11-23T16:17:29.811Z,11.40
2022-11-23T16:19:59.877Z,11.40
2022-11-23T16:22:32.779Z,11.40
2022-11-23T16:25:07.361Z,11.40
2022-11-23T16:27:36.843Z,11.40
2022-11-23T16:30:06.041Z,11.40
2022-11-23T16:32:36.798Z,11.50
2022-11-23T16:35:18.111Z,11.50
2022-11-23T16:37:46.998Z,11.50
2022-11-23T16:40:15.675Z,11.50
2022-11-23T16:42:44.364Z,11.50
2022-11-23T16:45:12.826Z,11.50
2022-11-23T16:47:54.819Z,11.40
2022-11-23T16:50:26.342Z,11.40
2022-11-23T16:52:56.172Z,11.40
2022-11-23T16:55:24.676Z,11.40
2022-11-23T16:57:53.267Z,11.40
2022-11-23T17:00:23.523Z,11.30
2022-11-23T17:02:53.538Z,11.30
2022-11-23T17:05:24.306Z,11.30
2022-11-23T17:07:53.031Z,11.30
2022-11-23T17:10:21.687Z,11.30
2022-11-23T17:12:54.651Z,11.30
2022-11-23T17:15:24.993Z,11.20
2022-11-23T17:17:54.817Z,11.10
2022-11-23T17:20:24.708Z,11.10
2022-11-23T17:22:53.162Z,11.20
2022-11-23T17:25:21.546Z,11.20
2022-11-23T17:27:50.012Z,11.20
2022-11-23T17:30:20.997Z,11.20
2022-11-23T17:32:50.315Z,11.30
2022-11-23T17:35:20.393Z,11.30
2022-11-23T17:37:48.995Z,11.20
2022-11-23T17:40:18.991Z,11.20
2022-11-23T17:42:48.891Z,11.20
2022-11-23T17:45:17.469Z,11.30
2022-11-23T17:47:46.807Z,11.30
2022-11-23T17:50:17.793Z,11.40
2022-11-23T17:52:48.621Z,11.40
2022-11-23T17:55:17.528Z,11.50
2022-11-23T17:57:45.937Z,11.40
2022-11-23T18:00:18.941Z,11.50
2022-11-23T18:02:48.055Z,11.50
2022-11-23T18:05:21.815Z,11.60
2022-11-23T18:07:52.463Z,11.50
2022-11-23T18:10:21.111Z,11.50
2022-11-23T18:12:49.590Z,11.60
2022-11-23T18:15:18.161Z,11.50
2022-11-23T18:17:46.549Z,11.40
2022-11-23T18:20:15.684Z,11.40
2022-11-23T18:22:46.177Z,11.40
2022-11-23T18:25:16.290Z,11.50
2022-11-23T18:27:44.631Z,11.50
2022-11-23T18:30:13.569Z,11.50
2022-11-23T18:32:41.990Z,11.50
2022-11-23T18:35:13.687Z,11.40
2022-11-23T18:37:42.165Z,11.20
2022-11-23T18:40:11.497Z,11.10
2022-11-23T18:42:41.334Z,11.00
2022-11-23T18:45:10.212Z,10.90
2022-11-23T18:47:38.896Z,10.80
2022-11-23T18:50:08.214Z,10.90
2022-11-23T18:52:36.608Z,10.80
2022-11-23T18:55:05.624Z,10.70
2022-11-23T18:57:34.070Z,10.70
2022-11-23T19:00:06.627Z,10.80
2022-11-23T19:02:37.506Z,10.80
2022-11-23T19:05:06.435Z,10.90
2022-11-23T19:07:35.147Z,11.00
2022-11-23T19:10:03.593Z,10.90
2022-11-23T19:12:32.157Z,10.90
2022-11-23T19:15:00.744Z,11.00
2022-11-23T19:17:30.565Z,10.90
2022-11-23T19:19:59.044Z,10.80
2022-11-23T19:22:27.517Z,10.90
2022-11-23T19:24:55.980Z,10.90
2022-11-23T19:27:24.370Z,10.90
2022-11-23T19:29:52.890Z,10.80
2022-11-23T19:32:23.693Z,10.90
2022-11-23T19:34:55.221Z,10.90
2022-11-23T19:37:23.725Z,10.90
2022-11-23T19:39:52.263Z,10.90
2022-11-23T19:42:20.888Z,10.90
2022-11-23T19:44:49.585Z,10.80
2022-11-23T19:47:22.678Z,10.90
2022-11-23T19:49:52.974Z,10.90
2022-11-23T19:52:21.780Z,10.80
2022-11-23T19:54:50.177Z,10.70
2022-11-23T19:57:18.609Z,10.70
2022-11-23T19:59:48.134Z,10.70
2022-11-23T20:02:24.529Z,10.60
2022-11-23T20:04:56.317Z,10.50
2022-11-23T20:07:25.343Z,10.60
2022-11-23T20:09:53.834Z,10.60
2022-11-23T20:12:22.241Z,10.60
2022-11-23T20:14:50.740Z,10.70
2022-11-23T20:17:19.173Z,10.70
2022-11-23T20:19:47.555Z,10.70
2022-11-23T20:22:17.366Z,10.80
2022-11-23T20:24:45.762Z,10.90
2022-11-23T20:27:14.195Z,10.90
2022-11-23T20:29:42.650Z,10.90
2022-11-23T20:32:12.731Z,10.90
2022-11-23T20:34:41.131Z,10.90
2022-11-23T20:37:09.597Z,10.90
2022-11-23T20:39:39.503Z,10.90
2022-11-23T20:42:09.052Z,10.90
2022-11-23T20:44:38.335Z,11.00
2022-11-23T20:47:07.021Z,11.00
2022-11-23T20:49:35.544Z,11.00
2022-11-23T20:52:04.438Z,10.90
2022-11-23T20:54:33.193Z,10.90
2022-11-23T20:57:03.676Z,10.70
2022-11-23T20:59:33.134Z,10.90
2022-11-23T21:02:01.774Z,10.80
2022-11-23T21:04:30.219Z,10.90
2022-11-23T21:06:58.693Z,10.90
2022-11-23T21:09:27.093Z,10.90
2022-11-23T21:12:13.442Z,10.90
2022-11-23T21:14:43.327Z,11.00
2022-11-23T21:17:11.719Z,11.10
2022-11-23T21:19:43.493Z,11.10
2022-11-23T21:22:13.768Z,11.20
2022-11-23T21:24:42.826Z,11.20
2022-11-23T21:27:14.308Z,11.10
2022-11-23T21:29:45.253Z,11.10
2022-11-23T21:32:15.173Z,11.10
2022-11-23T21:34:43.797Z,11.00
2022-11-23T21:37:13.152Z,11.00
2022-11-23T21:39:41.966Z,10.90
2022-11-23T21:42:10.395Z,11.00
2022-11-23T21:44:38.851Z,10.90
2022-11-23T21:47:08.761Z,10.90
2022-11-23T21:49:37.178Z,11.00
2022-11-23T21:52:06.317Z,10.80
2022-11-23T21:54:35.030Z,10.80
2022-11-23T21:57:03.706Z,10.90
2022-11-23T21:59:32.345Z,10.90
2022-11-23T22:02:01.346Z,11.00
2022-11-23T22:04:31.492Z,11.00
2022-11-23T22:07:00.337Z,11.10
2022-11-23T22:09:30.932Z,11.10
2022-11-23T22:11:59.637Z,11.20
2022-11-23T22:14:28.037Z,11.20
2022-11-23T22:16:57.424Z,11.20
2022-11-23T22:19:26.075Z,11.20
2022-11-23T22:21:55.998Z,11.20
2022-11-23T22:24:24.444Z,11.10
2022-11-23T22:26:52.840Z,11.10
2022-11-23T22:29:22.127Z,11.00
2022-11-23T22:31:50.647Z,11.00
2022-11-23T22:34:19.382Z,11.00
2022-11-23T22:36:50.781Z,11.00
2022-11-23T22:39:23.142Z,11.00
2022-11-23T22:41:51.662Z,11.00
2022-11-23T22:44:21.215Z,11.00
2022-11-23T22:46:50.197Z,11.10
2022-11-23T22:49:18.920Z,11.10
2022-11-23T22:51:47.404Z,11.20
2022-11-23T22:54:15.799Z,11.20
2022-11-23T22:56:47.750Z,11.20
2022-11-23T22:59:16.238Z,11.20
2022-11-23T23:01:46.980Z,11.10
2022-11-23T23:04:15.486Z,11.10
2022-11-23T23:06:43.918Z,11.10
2022-11-23T23:09:12.751Z,11.10
2022-11-23T23:11:41.203Z,11.10
2022-11-23T23:14:10.981Z,11.10
2022-11-23T23:16:39.718Z,10.90
2022-11-23T23:19:09.467Z,10.90
2022-11-23T23:21:37.878Z,11.00
2022-11-23T23:24:06.870Z,11.00
2022-11-23T23:26:35.558Z,11.00
2022-11-23T23:29:03.995Z,11.00
2022-11-23T23:31:34.612Z,10.90
2022-11-23T23:34:03.100Z,10.80
2022-11-23T23:36:31.522Z,10.70
2022-11-23T23:39:04.730Z,10.80
2022-11-23T23:41:33.209Z,10.80
2022-11-23T23:44:01.614Z,10.90
2022-11-23T23:46:30.145Z,10.90
2022-11-23T23:49:00.773Z,11.00
2022-11-23T23:51:32.393Z,10.80
2022-11-23T23:54:00.970Z,10.80
2022-11-23T23:56:30.683Z,10.80
2022-11-23T23:59:00.312Z,10.80
